Date,TemperatureHighF,TemperatureAvgF,TemperatureLowF,DewpointHighF,DewpointAvgF,DewpointLowF,HumidityHigh,HumidityAvg,HumidityLow,PressureMaxIn,PressureMinIn,WindSpeedMaxMPH,WindSpeedAvgMPH,GustSpeedMaxMPH,PrecipitationSumIn
2013-1-1,47.7,42.5,39.3,46.1,34.8,26.8,94,75,57,30.16,30.05,2,0,8,0.13
2013-1-2,46.4,42.7,38.6,45.6,39.7,36.8,97,89,81,30.14,29.93,7,2,16,0.11
2013-1-3,40.6,37.4,31.4,38.7,34.7,25.7,98,90,78,30.30,30.10,5,1,19,0.01
2013-1-4,43.1,33.6,28.2,26.5,23.1,20.8,81,66,49,30.40,30.30,6,4,19,0.00
2013-1-5,42.3,36.6,30.6,28.8,21.0,12.2,75,54,33,30.42,30.29,9,2,26,0.00
2013-1-6,52.4,41.2,35.5,41.4,34.5,29.0,86,77,66,30.26,30.08,5,1,19,0.01
2013-1-7,48.2,37.8,32.1,30.4,27.5,25.3,81,68,46,30.44,30.22,7,3,19,0.00
2013-1-8,47.2,40.7,33.2,42.5,34.3,28.1,90,78,61,30.48,30.40,0,0,5,0.00
2013-1-9,56.2,52.4,45.4,53.3,50.2,43.2,97,92,86,30.48,30.41,0,0,7,0.00
2013-1-10,62.2,57.7,54.8,53.0,51.5,49.2,91,80,66,30.48,30.39,2,0,9,0.00
2013-1-11,56.5,52.4,49.9,56.2,51.9,48.8,99,98,95,30.32,30.16,0,0,7,1.07
2013-1-12,65.6,59.6,56.2,62.8,58.5,55.9,99,97,85,30.17,30.08,1,0,7,0.07
2013-1-13,58.6,57.8,56.0,58.3,57.3,55.5,99,98,95,30.11,30.04,2,1,12,0.01
2013-1-14,60.0,58.4,57.3,59.7,58.1,57.0,99,99,99,30.11,30.04,7,1,10,0.70
2013-1-15,56.4,51.9,47.2,56.1,51.6,46.9,99,99,99,30.11,30.01,1,0,8,1.25
2013-1-16,54.5,50.8,45.8,54.2,50.5,45.5,100,99,99,30.03,29.96,0,0,4,0.41
2013-1-17,52.9,39.5,33.0,52.6,38.5,30.1,99,96,89,30.17,29.69,23,4,23,1.70
2013-1-18,32.9,32.8,32.7,30.0,29.9,29.5,89,89,88,30.19,30.17,13,6,18,0.00
2013-1-19,48.9,42.3,30.6,30.9,26.7,20.4,72,54,43,30.52,30.29,7,1,9,0.00
2013-1-20,58.0,46.9,38.3,35.2,27.0,15.4,63,46,33,30.22,30.08,7,2,13,0.00
2013-1-21,54.5,43.6,33.9,30.1,24.4,15.8,59,47,33,30.09,29.96,3,1,14,0.00
2013-1-22,34.3,27.6,20.8,16.0,8.2,2.0,58,45,29,30.29,30.02,6,3,19,0.00
2013-1-23,45.1,31.6,22.4,26.8,16.3,3.6,74,53,41,30.40,30.16,1,1,10,0.00
2013-1-24,38.0,33.5,25.8,31.1,10.8,2.8,81,39,29,30.43,30.06,15,4,18,0.00
2013-1-25,37.7,23.5,18.9,36.9,16.6,5.1,97,76,49,30.50,30.19,0,0,5,0.00
2013-1-26,45.2,39.4,32.3,37.1,28.3,24.6,97,65,53,30.36,30.19,12,2,17,0.07
2013-1-27,39.6,34.4,27.6,30.6,28.1,24.2,90,78,58,30.54,30.36,1,0,8,0.00
2013-1-28,51.2,44.6,35.1,45.8,42.1,29.6,97,91,79,30.50,30.29,4,0,7,0.07
2013-1-29,47.3,47.2,47.1,45.4,45.2,45.0,93,93,92,30.30,30.29,0,0,4,0.00
2013-1-30,60.4,55.0,41.7,60.1,54.6,41.1,99,99,97,30.03,29.42,11,2,21,1.80
2013-1-31,41.5,41.3,41.1,41.0,40.8,40.6,98,98,98,29.53,29.52,9,3,12,0.00
2013-2-1,34.8,28.4,23.2,26.7,15.2,6.7,81,58,43,30.39,30.01,5,2,22,0.00
2013-2-2,36.2,30.3,21.2,30.9,25.2,6.3,97,84,36,30.41,30.10,10,1,11,0.00
2013-2-3,47.0,35.6,28.7,33.0,27.0,22.4,97,74,40,30.10,29.94,3,1,17,0.07
2013-2-4,47.2,36.0,25.9,27.0,23.1,19.3,78,61,41,30.17,30.05,4,2,18,0.00
2013-2-5,58.2,50.3,35.7,40.4,32.8,25.0,70,52,33,30.04,29.95,12,1,19,0.00
2013-2-7,48.2,41.6,38.6,39.0,31.2,22.4,97,70,37,30.23,30.02,4,2,15,0.46
2013-2-8,49.2,41.7,33.6,47.0,37.4,28.4,98,86,50,30.13,29.95,5,2,19,0.01
2013-2-9,58.0,41.4,31.0,27.5,21.6,13.3,82,50,18,30.36,30.11,7,2,26,0.00
2013-2-10,48.7,42.8,36.9,44.3,28.7,20.4,97,60,43,30.42,30.23,1,0,7,0.45
2013-2-11,52.3,48.8,43.7,52.0,47.9,34.7,99,97,60,30.19,30.00,2,0,8,0.35
2013-2-12,52.5,45.1,40.3,37.7,29.6,23.8,86,56,37,30.11,29.95,6,2,21,0.07
2013-2-13,42.9,40.5,38.1,42.4,39.7,36.0,98,97,86,29.93,29.68,8,1,10,0.08
2013-2-14,48.0,38.7,31.2,35.7,31.3,27.5,87,75,59,30.10,29.89,5,2,21,0.00
2013-2-15,54.0,43.9,36.1,37.0,31.9,27.8,83,64,47,30.12,29.97,6,1,25,0.00
2013-2-16,35.1,30.5,23.6,30.8,22.2,12.9,87,71,51,30.05,29.85,6,4,25,0.01
2013-2-17,37.9,27.9,20.2,9.8,6.9,4.9,56,42,25,30.31,30.06,3,2,18,0.00
2013-2-18,51.4,42.8,28.3,25.3,23.0,9.4,61,46,34,30.41,30.24,8,1,15,0.00
2013-2-19,36.5,36.3,36.0,24.6,24.3,24.1,62,61,61,30.24,30.22,1,0,6,0.00
2013-2-20,46.9,36.4,28.8,16.2,11.8,9.1,47,37,24,30.15,30.07,5,2,18,0.00
2013-2-21,54.7,42.1,33.4,35.0,16.4,8.1,92,37,23,30.23,30.14,2,0,7,0.12
2013-2-22,38.5,36.2,33.5,38.0,34.9,31.4,98,95,90,30.27,30.12,1,0,8,0.57
2013-2-23,47.9,44.3,36.0,47.4,43.7,35.5,99,98,95,30.16,29.87,3,0,11,0.34
2013-2-24,57.4,47.1,39.3,45.1,34.6,25.6,98,65,37,30.03,29.86,6,3,17,0.00
2013-2-25,43.6,39.3,32.1,29.2,25.8,22.7,89,59,48,30.13,30.00,3,1,14,0.00
2013-2-26,40.0,36.2,30.7,39.5,35.4,29.5,98,97,93,30.04,29.64,11,1,16,0.97
2013-2-27,52.7,41.0,32.4,40.0,35.2,31.4,98,81,58,29.85,29.69,2,1,12,0.01
2013-2-28,43.1,36.3,30.8,33.1,27.0,23.2,81,69,55,29.92,29.74,5,1,21,0.00
2013-3-1,39.5,34.1,30.1,30.5,27.0,24.7,83,75,67,29.97,29.91,4,2,18,0.00
2013-3-2,40.0,35.6,29.9,28.6,25.0,21.1,90,66,49,29.95,29.87,14,3,19,2.00
2013-3-3,34.0,26.9,22.0,20.1,17.2,15.2,81,67,53,30.06,29.95,6,5,24,0.00
2013-3-4,50.1,35.4,23.0,23.2,18.0,14.5,70,51,30,30.21,30.06,3,1,21,0.00
2013-3-5,46.1,44.1,37.6,45.3,41.8,24.6,98,92,49,30.12,29.67,10,0,16,0.50
2013-3-6,36.5,31.0,27.8,29.8,24.1,18.9,88,76,59,30.16,29.70,8,4,33,0.00
2013-3-7,48.9,34.8,27.5,31.1,26.2,24.0,88,72,48,30.30,30.14,8,4,28,0.00
2013-3-8,52.6,39.9,28.9,23.8,17.5,5.4,75,45,16,30.35,30.28,8,5,22,0.00
2013-3-9,58.0,47.3,38.2,29.4,24.3,12.1,53,41,29,30.37,30.28,1,0,7,0.00
2013-3-10,60.8,51.4,44.1,37.2,32.6,28.2,59,49,37,30.30,30.18,1,0,11,0.00
2013-3-11,55.0,49.3,45.4,51.0,45.1,35.6,97,86,59,30.19,29.87,1,0,9,0.83
2013-3-12,53.9,44.9,39.0,51.7,40.4,35.6,98,85,53,29.89,29.76,16,5,17,1.08
2013-3-13,50.8,40.4,31.2,30.4,23.7,18.2,71,53,33,30.16,30.00,5,2,20,0.00
2013-3-14,50.5,34.5,24.0,21.8,15.6,9.4,67,48,28,30.34,30.17,5,3,20,0.00
2013-3-15,67.3,48.0,33.7,40.4,27.6,14.5,60,46,28,30.25,29.98,6,2,14,0.00
2013-3-16,76.2,60.5,50.5,47.4,43.5,40.5,72,55,34,29.97,29.76,2,1,19,0.00
2013-3-17,71.8,60.2,49.0,49.0,45.6,43.1,82,59,41,29.97,29.84,2,0,13,0.00
2013-3-18,46.4,40.5,36.3,43.9,39.5,35.5,98,96,85,30.04,29.89,10,1,13,0.64
2013-3-19,43.8,43.3,42.7,43.0,42.5,42.0,98,97,97,29.93,29.91,3,0,6,0.00
2013-3-20,54.6,43.0,35.6,22.0,13.6,7.5,49,30,23,30.11,29.84,4,2,17,0.00
2013-3-21,38.8,30.5,22.2,29.8,16.5,11.8,91,58,35,29.99,29.80,6,4,23,0.00
2013-3-22,48.3,34.3,25.5,24.2,17.2,11.8,60,50,34,30.11,30.00,5,1,13,0.00
2013-3-23,53.5,43.5,38.2,46.0,36.6,24.3,94,77,56,30.08,29.91,1,0,6,0.03
2013-3-24,42.9,38.9,37.0,41.3,37.9,36.2,97,96,90,29.94,29.55,16,2,17,0.94
2013-3-25,41.7,34.0,29.6,36.5,26.8,21.5,98,76,52,29.94,29.58,4,1,17,0.02
2013-3-26,40.4,32.2,27.6,24.7,22.5,20.0,79,68,52,30.24,29.94,5,3,28,0.00
2013-3-27,47.0,35.3,27.8,27.8,23.9,19.3,84,65,44,30.32,30.23,5,2,17,0.00
2013-3-28,53.7,40.3,31.0,24.2,20.7,15.9,69,49,23,30.34,30.24,6,2,18,0.00
2013-3-29,58.5,44.4,36.4,38.3,26.4,19.3,84,51,29,30.36,30.25,2,1,14,0.00
2013-3-30,61.5,50.5,41.9,42.2,39.4,37.8,90,68,44,30.24,30.08,1,0,9,0.02
2013-3-31,61.3,55.3,47.3,55.5,51.4,39.7,98,87,61,30.08,29.86,6,1,8,0.40
2013-4-1,62.7,54.4,48.6,52.2,41.5,31.6,98,65,41,29.97,29.86,5,2,15,0.01
2013-4-2,62.0,48.8,38.2,32.9,28.2,21.3,68,46,30,30.14,29.96,5,3,16,0.00
2013-4-3,54.8,46.9,39.6,28.2,21.7,16.7,44,37,28,30.27,30.13,5,2,16,0.00
2013-4-4,46.7,34.6,32.3,34.3,32.1,22.9,97,92,43,30.26,30.00,11,2,16,0.78
2013-4-5,58.2,45.9,35.1,43.5,36.4,26.9,97,74,30,30.10,29.95,6,3,18,0.00
2013-4-6,64.5,55.0,47.4,36.3,33.1,30.5,62,44,30,30.22,30.10,5,1,19,0.00
2013-4-7,66.5,55.3,45.1,45.7,41.4,32.7,87,61,46,30.22,30.11,2,1,13,0.00
2013-4-8,70.1,60.9,51.4,55.1,49.9,44.6,90,68,51,30.15,30.07,2,0,14,0.00
2013-4-9,79.7,67.4,56.7,56.4,53.7,50.7,82,63,44,30.18,30.08,2,1,12,0.00
2013-4-10,82.4,68.8,58.6,57.7,55.1,53.0,82,63,41,30.08,29.96,2,1,10,0.00
2013-4-11,73.5,64.8,57.1,62.8,57.3,53.4,96,78,58,29.92,29.68,2,1,14,0.02
2013-4-12,74.6,63.8,53.4,63.0,50.9,34.2,99,70,26,29.78,29.61,4,2,20,1.69
2013-4-13,72.6,58.4,48.2,41.0,37.0,32.2,67,47,24,30.02,29.77,5,2,19,0.00
2013-4-14,66.7,58.8,53.6,49.6,40.0,33.3,86,52,35,30.07,29.96,5,0,10,0.00
2013-4-15,60.1,55.3,51.0,56.1,53.5,49.3,98,94,86,30.20,29.95,0,0,7,0.38
2013-4-16,74.8,63.4,56.3,60.2,57.1,54.7,98,81,57,30.29,30.18,1,0,8,0.00
2013-4-17,73.1,63.2,59.6,62.6,58.4,56.6,95,85,67,30.22,30.11,3,0,10,0.39
2013-4-18,73.6,64.2,58.7,61.6,58.8,56.6,96,84,62,30.12,29.94,1,0,10,0.00
2013-4-19,63.3,59.6,56.9,62.0,58.9,56.3,99,98,92,29.93,29.72,8,1,15,1.42
2013-4-21,60.2,51.2,45.4,38.6,31.7,25.6,68,48,37,30.42,30.30,3,2,15,0.00
2013-4-22,62.2,49.5,40.8,38.7,36.6,32.3,85,63,36,30.39,30.22,2,1,13,0.00
2013-4-23,70.1,55.3,43.9,46.2,38.5,28.1,67,54,40,30.28,30.12,2,1,10,0.00
2013-4-24,67.0,57.2,48.3,56.6,51.6,45.9,96,82,66,30.14,30.03,2,0,16,0.00
2013-4-25,71.4,55.2,41.5,55.4,33.1,20.0,97,52,17,30.30,30.06,8,3,20,0.00
2013-4-26,66.8,56.6,49.5,40.2,32.7,27.4,49,41,31,30.40,30.30,5,2,15,0.00
2013-4-27,57.0,52.3,48.3,50.5,46.7,37.7,97,83,49,30.36,30.26,0,0,4,0.70
2013-4-28,52.2,49.3,45.9,51.7,48.7,45.1,98,98,96,30.26,30.07,7,0,8,1.99
2013-4-29,68.0,57.8,50.6,58.6,54.5,50.1,99,89,70,30.08,29.95,1,0,7,0.08
2013-4-30,70.6,61.0,54.3,60.2,56.3,53.2,97,86,65,30.13,29.98,1,0,12,0.00
2013-5-1,61.4,56.3,53.0,54.7,52.4,50.7,95,87,75,30.25,30.14,2,1,13,0.00
2013-5-2,56.0,53.6,51.8,54.3,52.5,51.0,97,96,93,30.28,30.21,2,1,14,0.01
2013-5-3,57.3,52.8,49.3,52.6,50.8,48.8,98,93,84,30.22,30.10,2,2,15,0.06
2013-5-4,53.2,48.3,44.8,50.0,46.6,41.7,96,94,87,30.09,29.96,15,3,23,0.06
2013-5-5,49.6,47.5,44.8,49.0,46.8,44.0,98,97,96,29.97,29.83,16,3,21,2.17
2013-5-6,60.4,52.8,46.2,52.9,49.4,43.7,99,89,68,29.90,29.82,1,0,8,0.12
2013-5-7,62.5,53.0,44.8,51.5,47.2,41.6,91,81,62,29.96,29.87,2,0,10,0.02
2013-5-8,68.4,58.3,50.0,58.3,52.3,46.9,90,81,65,30.05,29.93,1,0,8,0.00
2013-5-9,75.7,66.3,55.4,59.3,54.0,50.5,85,66,50,30.09,30.01,4,1,10,0.07
2013-5-10,72.6,65.6,60.8,60.7,57.2,53.5,84,75,62,30.08,29.93,2,0,11,0.00
2013-5-11,70.3,63.1,58.1,62.3,58.1,53.7,92,84,74,29.94,29.81,1,0,8,0.06
2013-5-12,65.9,57.5,51.0,55.8,43.1,31.0,91,62,36,30.03,29.83,4,2,19,0.00
2013-5-13,66.2,53.3,44.6,37.8,30.4,26.0,57,43,23,30.18,30.04,5,2,21,0.09
2013-5-14,70.8,59.2,46.5,50.9,40.6,30.3,71,51,39,30.26,30.11,2,1,11,0.00
2013-5-15,82.8,73.6,58.7,62.7,57.9,50.7,79,59,48,30.10,30.02,5,0,11,0.00
2013-5-16,77.1,69.4,63.0,63.9,56.7,50.8,77,64,51,29.99,29.93,1,0,9,0.00
2013-5-17,78.5,69.5,63.3,63.9,59.0,55.8,83,70,57,30.06,29.97,2,0,10,0.00
2013-5-18,66.0,63.4,60.9,60.2,58.9,56.7,97,86,72,30.07,30.02,0,0,5,1.58
2013-5-19,66.6,63.6,61.7,65.9,63.0,61.1,99,98,95,30.09,30.01,0,0,6,0.23
2013-5-20,75.7,66.5,60.8,68.3,64.1,60.2,99,92,76,30.09,30.01,1,0,5,0.00
2013-5-21,79.9,70.4,64.2,70.4,65.5,62.7,97,85,66,30.02,29.91,0,0,6,0.00
2013-5-22,76.7,69.7,62.8,70.2,67.0,61.7,97,91,79,29.97,29.82,4,0,8,0.13
2013-5-23,73.7,64.8,59.6,68.5,61.6,56.3,99,90,68,29.92,29.83,3,0,16,0.30
2013-5-24,65.5,59.9,54.5,55.8,45.9,37.8,84,62,36,30.19,29.87,4,2,23,0.00
2013-5-25,74.5,60.2,48.9,49.8,40.0,32.3,67,48,33,30.31,30.18,3,1,17,0.00
2013-5-26,71.9,64.0,54.1,58.5,47.4,35.6,83,56,40,30.26,30.17,2,0,7,0.07
2013-5-27,78.2,66.1,56.8,60.7,54.4,48.7,80,67,50,30.25,30.12,1,0,8,0.01
2013-5-28,79.7,69.1,61.3,63.5,60.2,57.5,88,74,56,30.19,30.13,1,0,7,0.00
2013-5-29,79.9,68.8,59.9,67.2,61.6,58.1,94,79,58,30.20,30.14,1,0,8,0.07
2013-5-30,78.4,68.4,61.8,65.1,61.6,59.9,95,80,60,30.24,30.14,0,0,5,0.00
2013-5-31,81.0,70.5,63.7,66.4,63.4,60.9,96,79,59,30.20,30.09,1,0,6,0.00
2013-6-1,78.3,74.5,63.4,68.1,65.2,62.4,97,73,65,30.09,30.01,5,0,8,0.03
2013-6-2,69.6,66.3,63.8,69.0,65.5,62.8,98,97,81,30.03,29.88,3,0,7,0.96
2013-6-3,75.8,67.3,62.7,70.0,64.8,60.4,99,92,75,29.94,29.84,1,0,15,0.15
2013-6-4,75.3,68.4,62.7,67.0,63.1,59.7,94,84,73,30.05,29.92,1,0,8,0.25
2013-6-5,77.0,65.9,63.9,68.9,64.1,62.4,98,94,75,30.06,29.92,2,0,7,0.32
2013-6-6,66.6,64.3,61.8,66.3,63.7,61.2,99,98,97,29.95,29.85,2,0,3,0.37
2013-6-7,76.3,66.0,63.0,73.5,64.9,61.0,99,96,88,29.81,29.66,1,0,7,1.06
2013-6-8,75.4,67.3,61.2,69.1,64.6,60.3,98,91,79,30.07,29.81,1,0,6,0.04
2013-6-9,75.3,67.0,65.4,70.4,65.5,63.4,99,95,84,30.11,30.01,0,0,1,1.15
2013-6-10,67.5,65.8,63.1,67.1,65.4,62.8,99,99,98,30.02,29.91,0,0,0,0.88
2013-6-11,82.2,71.1,63.1,69.9,65.9,62.6,99,85,63,29.99,29.93,0,0,0,0.01
2013-6-12,86.5,76.0,69.4,76.1,67.7,59.3,89,76,64,30.00,29.90,0,0,0,0.00
2013-6-13,86.3,77.2,69.7,74.9,67.2,59.1,83,72,58,29.89,29.67,11,1,11,0.01
2013-6-14,77.6,69.1,61.6,61.9,55.5,52.5,83,63,46,30.01,29.75,6,2,23,0.00
2013-6-15,79.8,69.0,61.2,64.6,58.5,52.2,85,70,57,30.11,30.02,1,0,7,0.07
2013-6-16,81.8,70.9,63.0,68.7,62.1,56.9,86,74,58,30.11,30.00,0,0,6,0.00
2013-6-17,76.8,68.4,65.7,71.9,66.5,64.3,97,94,82,30.02,29.92,0,0,4,0.53
2013-6-18,74.0,69.5,64.7,73.6,66.7,60.4,99,91,84,29.94,29.78,9,1,14,0.39
2013-6-19,75.0,68.5,64.0,67.0,62.6,59.7,89,82,71,30.08,29.90,2,1,10,0.00
2013-6-20,76.8,68.6,63.9,67.5,64.0,61.5,95,86,71,30.20,30.08,1,0,7,0.00
2013-6-21,79.4,70.3,63.0,66.0,62.6,60.6,92,78,59,30.24,30.16,1,0,7,0.00
2013-6-22,80.3,69.8,62.6,64.7,60.8,57.7,88,74,54,30.20,30.10,1,0,9,0.00
2013-6-23,80.5,70.0,66.4,70.8,66.3,62.4,96,89,72,30.18,30.10,0,0,6,0.33
2013-6-24,76.8,70.7,66.2,72.2,69.4,65.6,99,96,81,30.19,30.13,2,0,4,0.13
2013-6-25,80.0,70.9,66.6,72.9,67.5,65.2,97,89,76,30.12,30.01,0,0,5,0.02
2013-6-26,78.8,71.3,66.4,73.9,68.6,64.3,97,91,85,30.02,29.88,4,0,4,0.11
2013-6-27,82.0,75.2,66.1,76.0,71.2,64.9,97,88,80,29.94,29.73,2,0,8,0.17
2013-6-28,85.4,75.1,69.0,73.6,67.6,64.2,89,78,55,29.79,29.58,2,0,14,0.00
2013-6-29,82.4,72.6,65.9,72.1,65.4,57.8,91,79,63,29.68,29.60,0,0,5,0.00
2013-6-30,77.8,70.2,65.9,70.0,65.5,60.6,96,86,77,29.74,29.66,0,0,5,0.08
2013-7-1,76.1,68.2,64.5,71.6,66.4,63.9,99,94,84,29.89,29.77,1,0,7,1.14
2013-7-2,72.4,67.9,64.6,70.6,67.0,64.0,99,97,92,30.10,29.93,0,0,6,0.02
2013-7-3,71.3,67.3,65.9,71.0,66.9,65.6,99,99,98,30.18,30.08,5,0,6,1.19
2013-7-4,70.1,66.2,62.7,69.8,65.9,62.1,99,99,98,30.20,30.14,4,0,5,2.49
2013-7-5,79.3,68.6,65.5,71.9,67.1,65.2,99,96,74,30.23,30.16,0,0,6,0.31
2013-7-6,75.2,69.1,65.0,72.4,68.4,64.4,99,97,91,30.19,30.10,0,0,7,1.04
2013-7-7,75.3,69.7,66.9,72.2,68.9,66.6,99,97,90,30.14,30.06,1,0,5,1.64
2013-7-8,76.0,69.6,67.0,69.6,67.5,66.1,98,93,77,30.17,30.11,2,0,7,0.00
2013-7-9,82.5,73.1,67.5,74.9,70.4,66.5,98,92,77,30.15,30.03,1,0,7,0.12
2013-7-10,75.1,70.2,67.8,72.9,69.5,66.9,99,98,93,30.09,29.93,4,0,7,0.93
2013-7-11,75.4,70.4,67.1,73.2,69.5,66.5,99,97,92,29.94,29.86,0,0,3,0.01
2013-7-12,79.9,71.1,66.1,70.8,68.1,63.4,98,91,72,29.90,29.86,4,0,9,0.05
2013-7-13,70.9,67.9,61.9,67.6,66.2,60.8,99,94,89,30.09,29.97,8,1,10,0.03
2013-7-14,72.7,68.1,65.7,71.8,67.5,65.4,99,98,93,30.26,30.09,4,0,8,0.69
2013-7-15,80.1,72.0,67.2,70.9,68.5,66.9,99,90,70,30.32,30.24,1,0,8,0.09
2013-7-16,85.4,74.7,68.0,76.1,70.2,67.4,98,87,67,30.29,30.21,0,0,6,0.00
2013-7-17,88.3,75.8,67.9,73.2,69.0,64.6,96,80,61,30.24,30.11,2,1,14,0.16
2013-7-18,78.3,74.2,69.2,73.4,69.8,65.4,92,86,83,30.15,30.10,2,0,9,0.00
2013-7-19,84.9,75.8,69.5,74.0,70.9,67.4,93,85,69,30.09,29.96,0,0,5,0.00
2013-7-20,77.9,69.7,67.2,73.4,68.4,66.3,98,96,86,30.01,29.91,0,0,4,0.36
2013-7-21,77.4,70.0,67.0,73.2,68.3,65.8,98,95,85,29.99,29.92,1,0,10,0.60
2013-7-22,76.0,69.9,65.1,73.7,68.5,64.5,98,95,88,29.99,29.84,0,0,8,0.34
2013-7-23,82.4,71.5,65.5,72.5,67.9,62.8,98,89,72,29.88,29.77,0,0,6,0.00
2013-7-24,84.6,77.4,67.7,72.9,68.4,64.8,95,75,61,29.82,29.74,6,1,15,0.16
2013-7-25,78.0,71.0,66.4,70.6,66.5,62.6,94,86,78,29.99,29.81,2,1,12,0.00
2013-7-26,78.2,70.4,66.4,71.2,66.9,62.2,97,89,77,30.07,29.99,2,0,14,0.07
2013-7-27,68.7,67.2,65.5,68.1,66.6,64.6,99,98,97,30.01,29.94,0,0,4,1.65
2013-7-28,78.2,69.0,65.6,71.4,67.3,65.2,99,95,78,29.96,29.89,0,0,5,0.07
2013-7-29,82.0,70.5,64.3,70.4,63.0,57.9,85,77,67,30.16,30.00,1,0,8,0.00
2013-7-30,76.1,69.8,65.0,69.6,63.8,55.5,96,82,66,30.19,30.12,1,0,5,0.01
2013-7-31,70.7,68.0,66.5,69.5,67.0,65.5,98,97,94,30.15,29.99,0,0,4,0.14
2013-8-1,80.5,72.9,66.0,73.4,69.0,65.4,99,88,75,29.97,29.87,10,0,13,0.28
2013-8-2,81.2,72.7,67.4,72.6,66.8,63.2,88,82,68,30.01,29.91,3,1,14,0.00
2013-8-3,79.8,72.8,68.7,72.2,68.0,64.5,95,85,75,30.01,29.94,0,0,3,0.00
2013-8-4,80.1,73.6,69.5,68.7,65.2,60.5,88,75,65,30.00,29.93,4,2,16,0.00
2013-8-5,80.6,71.4,65.7,71.9,65.3,60.5,92,81,72,30.04,29.95,1,0,7,0.00
2013-8-6,77.0,70.1,66.9,71.8,68.6,66.3,99,95,82,30.03,29.94,1,0,6,0.25
2013-8-7,69.6,68.5,67.6,69.3,68.1,67.3,99,99,98,30.05,29.99,0,0,6,2.32
2013-8-8,76.3,70.7,67.0,72.7,69.7,66.7,99,96,88,30.06,30.00,0,0,5,0.01
2013-8-9,76.5,71.9,69.6,74.3,70.8,68.7,99,96,92,30.06,30.00,0,0,4,0.16
2013-8-10,76.8,71.3,69.3,74.8,69.7,67.8,98,95,85,30.10,30.05,0,0,3,0.63
2013-8-11,78.5,71.8,67.8,72.9,69.3,66.5,97,92,82,30.11,30.05,0,0,0,0.02
2013-8-12,81.9,72.6,69.1,73.2,68.9,66.0,95,88,75,30.08,29.99,0,0,0,0.74
2013-8-13,83.9,73.0,68.0,76.3,69.3,65.0,98,89,73,29.94,29.80,0,0,0,0.01
2013-8-14,75.7,68.9,64.9,66.8,62.6,60.0,91,81,60,30.03,29.85,0,0,0,0.00
2013-8-15,64.1,61.7,58.8,61.4,57.7,55.8,94,87,81,30.12,30.03,0,0,0,0.02
2013-8-16,68.1,61.5,58.6,60.3,57.3,54.6,93,86,76,30.15,30.08,0,0,0,0.02
2013-8-17,64.8,61.0,57.6,60.3,58.4,55.2,97,91,84,30.18,30.11,7,1,11,0.10
2013-8-18,68.3,63.7,60.4,67.1,63.1,59.9,99,98,94,30.22,30.13,0,0,5,0.44
2013-8-19,69.7,66.1,62.6,68.6,65.4,62.0,99,98,93,30.20,30.10,4,0,4,1.44
2013-8-20,73.9,67.5,63.7,70.1,66.1,63.4,99,96,87,30.18,30.10,0,0,4,0.01
2013-8-21,73.9,68.3,65.5,71.3,67.2,64.9,99,96,90,30.23,30.12,1,0,4,0.19
2013-8-22,74.3,69.7,65.9,72.2,67.7,64.2,97,94,86,30.15,30.03,0,0,7,0.28
2013-8-23,83.6,73.0,68.6,71.6,66.8,64.3,91,82,55,30.06,29.96,2,0,11,1.88
2013-8-24,76.1,68.2,61.5,65.1,61.9,58.2,96,82,57,30.26,30.03,1,1,11,0.00
2013-8-25,74.1,65.3,60.1,62.7,58.9,55.5,92,80,63,30.37,30.27,1,0,7,0.05
2013-8-26,78.7,66.9,59.1,68.6,61.6,55.5,92,84,67,30.33,30.13,1,0,7,0.00
2013-8-27,80.8,71.4,64.4,69.4,64.6,60.6,94,80,58,30.15,30.01,3,1,13,0.00
2013-8-28,83.2,74.4,70.6,74.1,68.0,64.6,89,81,65,30.03,29.92,3,1,15,0.00
2013-8-29,85.8,79.3,71.0,73.7,69.7,65.6,88,73,61,29.94,29.89,8,1,11,0.00
2013-8-30,78.7,70.9,67.9,73.5,69.1,67.3,98,94,82,30.01,29.92,1,0,10,1.36
2013-8-31,82.0,70.5,67.0,73.7,68.8,65.9,99,94,76,29.95,29.88,1,0,6,0.57
2013-9-1,77.7,71.6,67.8,74.5,69.7,66.6,97,94,89,29.90,29.80,1,0,5,0.00
2013-9-5,83.4,72.9,67.1,68.4,62.2,56.6,86,71,40,30.10,30.04,2,0,11,0.00
2013-9-6,76.7,69.3,63.9,65.6,60.8,56.7,85,74,64,30.15,30.06,2,1,9,0.00
2013-9-7,80.4,68.6,61.5,68.8,63.2,59.3,93,84,65,30.11,29.99,0,0,6,0.00
2013-9-8,77.7,71.5,65.8,71.0,65.5,62.4,91,82,70,29.99,29.92,2,0,10,0.05
2013-9-9,81.4,72.5,68.0,70.3,66.7,63.9,91,82,67,30.11,29.99,1,0,7,0.00
2013-9-10,82.8,72.1,66.0,70.5,67.0,63.4,95,85,64,30.22,30.12,1,0,5,0.00
2013-9-11,80.2,73.2,67.1,71.8,67.2,64.3,93,82,70,30.20,30.14,2,0,6,0.00
2013-9-12,79.0,71.5,69.0,69.7,66.9,65.2,93,86,71,30.07,29.93,1,0,9,0.09
2013-9-13,78.8,68.3,62.3,62.8,58.8,50.8,92,73,54,29.87,29.78,4,2,20,0.00
2013-9-14,72.8,61.4,54.8,59.0,52.6,49.0,85,74,56,30.10,29.88,3,1,16,0.00
2013-9-15,75.4,63.7,57.6,65.3,59.1,54.8,91,85,71,30.20,30.11,0,0,6,0.00
2013-9-16,77.4,68.5,63.5,66.0,62.4,59.3,94,82,65,30.14,30.06,1,0,8,0.00
2013-9-17,66.8,61.5,58.2,59.7,56.3,53.4,88,83,76,30.26,30.13,1,1,13,0.07
2013-9-18,63.3,61.0,54.9,59.5,57.7,52.4,93,89,80,30.28,30.17,1,0,8,0.00
2013-9-19,73.1,63.7,57.8,66.2,61.2,56.4,96,92,78,30.20,30.09,0,0,5,0.02
2013-9-20,79.0,68.9,63.6,69.6,64.7,61.5,97,87,70,30.09,29.91,0,0,6,0.00
2013-9-21,67.9,64.0,60.3,64.9,62.4,58.9,99,95,85,29.92,29.66,4,1,18,1.94
2013-9-22,61.4,59.2,57.4,58.7,55.6,52.7,95,88,81,29.84,29.71,4,2,18,0.00
2013-9-28,65.9,59.4,55.4,57.9,54.7,52.5,92,85,74,30.23,30.14,1,0,7,0.00
2013-9-29,67.0,57.8,53.1,58.1,53.7,49.2,93,86,72,30.18,30.06,1,0,7,0.00
2013-9-30,70.2,60.2,54.9,60.5,56.3,52.9,94,88,70,30.09,30.01,0,0,5,0.00
2013-10-1,75.2,63.5,56.7,62.6,58.2,55.0,95,84,62,30.15,30.06,0,0,5,0.00
2013-10-2,75.7,66.4,61.7,63.8,59.9,57.0,88,80,63,30.15,30.07,2,0,11,0.00
2013-10-3,76.8,67.0,61.7,65.3,61.0,58.1,90,82,65,30.12,30.06,0,0,6,0.00
2013-10-4,79.1,69.4,63.6,67.6,62.1,58.5,86,78,67,30.14,30.07,1,0,11,0.00
2013-10-5,79.5,69.9,65.3,67.5,63.2,61.0,87,80,60,30.12,30.02,1,0,6,0.00
2013-10-6,73.1,66.5,62.3,66.2,63.5,60.0,95,90,78,30.03,29.94,4,0,4,0.06
2013-10-7,66.2,61.4,56.8,63.5,58.0,49.3,99,89,72,29.98,29.78,4,1,17,1.34
2013-10-8,56.4,54.1,52.1,48.6,47.1,44.8,82,77,73,30.14,29.98,11,4,12,0.06
2013-10-9,67.5,56.4,49.5,51.8,45.5,41.3,82,68,51,30.23,30.14,2,1,15,0.00
2013-10-10,71.2,60.7,51.9,55.4,50.3,44.7,81,69,52,30.15,30.01,3,1,16,0.00
2013-10-11,74.5,64.4,59.0,55.5,53.1,50.9,78,68,47,30.02,29.93,4,2,16,0.00
2013-10-12,71.2,64.6,61.4,62.2,56.1,52.3,84,74,64,30.07,29.96,3,1,12,0.07
2013-10-13,66.8,62.8,60.5,62.0,59.8,57.8,97,90,83,30.19,30.08,1,0,9,0.19
2013-10-14,63.1,59.9,58.1,60.1,58.5,57.3,97,95,90,30.22,30.14,3,1,14,0.01
2013-10-19,58.7,56.4,53.0,57.4,54.8,48.0,99,95,77,29.97,29.86,1,0,7,0.02
2013-10-20,63.1,51.3,43.5,49.6,44.6,39.0,87,78,54,30.10,29.94,3,1,12,0.00
2013-10-21,61.8,53.1,47.0,54.1,49.4,44.2,94,87,71,30.16,30.02,1,0,7,0.00
2013-10-22,65.8,56.7,52.2,56.2,52.0,49.0,93,84,71,30.03,29.82,0,0,4,0.01
2013-10-23,60.1,49.0,38.5,48.4,39.1,29.6,91,70,46,29.98,29.74,4,1,18,0.00
2013-10-24,56.6,43.2,36.2,42.5,34.3,29.3,80,71,56,30.20,30.03,2,1,14,0.00
2013-10-25,48.1,42.2,31.5,36.7,27.1,24.1,84,56,41,30.38,30.20,9,2,21,0.00
2013-10-29,65.3,57.2,52.3,54.4,51.8,50.0,92,83,66,30.35,30.24,2,0,14,0.00
2013-10-30,72.9,61.4,56.6,60.3,55.7,52.2,91,82,61,30.29,30.17,0,0,7,0.06
2013-10-31,61.8,59.6,56.3,59.5,56.1,54.3,95,88,81,30.18,29.92,1,0,6,0.01
2013-11-1,64.6,59.8,55.8,60.9,58.8,55.2,99,97,86,29.91,29.66,2,0,13,0.58
2013-11-2,61.8,53.8,48.3,56.0,42.8,36.2,98,67,43,29.96,29.74,3,1,18,0.00
2013-11-3,57.7,47.6,42.4,38.2,35.8,30.4,79,65,36,30.35,29.97,5,2,22,0.00
2013-11-4,54.2,46.2,41.4,35.9,32.8,30.7,78,60,44,30.52,30.38,1,1,11,0.08
2013-11-6,63.6,54.5,49.6,53.5,50.4,47.2,96,86,69,30.45,30.16,1,0,6,0.00
2013-11-7,59.0,51.7,40.6,55.5,45.6,33.3,97,80,59,30.14,30.00,5,2,20,0.01
2013-11-8,53.0,42.5,33.9,31.4,24.4,18.1,76,52,25,30.34,30.13,4,2,22,0.00
2013-11-9,51.8,42.9,35.7,34.8,28.3,22.7,68,56,45,30.40,30.26,1,0,7,0.00
2013-11-10,67.0,54.6,47.5,35.7,30.3,24.4,49,40,26,30.28,30.18,7,3,20,0.00
2013-11-11,57.7,48.8,40.9,31.4,27.0,19.8,54,43,32,30.33,30.20,6,1,22,0.00
2013-11-12,53.1,44.8,31.4,36.6,29.1,25.0,78,56,35,30.25,30.10,17,4,26,0.10
2013-11-15,50.4,46.8,41.2,48.0,32.7,15.3,97,62,31,30.37,30.23,0,0,5,0.02
2013-11-16,58.4,51.4,48.3,56.4,50.7,47.8,98,97,93,30.30,30.22,0,0,4,0.00
2013-11-17,58.8,54.9,52.9,58.5,54.4,52.1,99,98,97,30.24,29.95,0,0,4,0.04
2013-11-18,65.8,56.3,45.5,58.4,44.3,31.0,99,66,37,29.97,29.88,4,2,18,0.01
2013-11-19,52.3,43.5,37.9,31.9,26.8,22.5,62,52,38,30.24,29.98,8,3,34,0.00
2013-11-20,47.2,40.0,33.9,31.3,27.9,24.9,76,62,45,30.46,30.26,2,1,40,0.00
2013-11-21,50.2,45.4,39.5,49.6,42.3,30.6,98,89,68,30.49,30.40,2,1,12,0.08
2013-11-22,56.3,52.7,49.4,56.0,52.3,48.9,99,99,98,30.42,30.16,1,0,7,0.21
2013-11-23,55.6,52.5,48.1,55.3,50.6,44.4,99,93,87,30.15,30.09,9,4,16,0.00
2013-11-24,34.9,28.2,21.6,23.6,11.6,4.5,71,51,32,30.54,30.16,5,3,26,0.00
2013-11-25,36.5,28.7,21.5,23.1,11.0,7.1,70,48,31,30.60,30.40,1,0,5,0.00
2013-11-26,41.7,38.5,31.7,41.2,37.1,24.0,98,95,73,30.38,29.85,7,1,9,2.88
2013-11-27,44.7,34.2,29.4,43.6,31.5,26.4,96,90,82,29.70,29.62,26,9,39,0.08
2013-11-29,51.9,39.6,32.0,26.8,22.8,18.7,73,52,35,30.62,30.51,4,1,13,0.01
2013-11-30,44.4,34.9,29.2,25.7,23.7,22.4,77,64,46,30.64,30.43,2,1,9,0.00
2013-12-1,53.5,42.0,34.1,38.3,30.6,22.3,78,64,54,30.41,30.07,3,0,8,0.00
2013-12-2,52.6,46.7,42.2,44.4,37.6,31.7,94,71,59,30.04,29.84,4,0,11,0.00
2013-12-3,51.2,48.0,45.0,49.1,46.9,43.7,98,96,91,29.96,29.87,0,0,5,0.07
2013-12-4,55.9,52.8,49.9,55.6,52.4,49.4,99,99,98,30.08,29.96,0,0,6,0.06
2013-12-5,58.8,58.2,56.7,58.5,57.9,56.4,99,99,99,30.11,30.05,4,0,7,0.37
2013-12-6,63.6,62.6,61.8,63.4,62.4,61.8,100,100,99,30.03,29.93,5,2,16,0.47
2013-12-7,58.1,48.9,42.4,58.1,46.4,40.8,100,91,78,30.36,29.98,8,3,20,0.09
2013-12-8,41.6,34.8,33.6,39.2,34.2,33.1,98,98,91,30.37,30.28,5,1,12,0.14
2013-12-9,53.2,43.2,33.5,52.9,42.9,33.0,99,99,98,30.27,30.11,0,0,5,0.95
2013-12-10,49.5,42.3,29.9,49.2,38.5,24.0,99,87,60,30.31,29.91,6,2,23,0.09
2013-12-11,47.9,37.2,28.4,28.7,21.6,15.8,79,54,40,30.47,30.31,3,0,18,0.00
2013-12-12,41.4,33.6,28.7,21.6,16.8,8.4,70,51,32,30.43,30.31,6,3,22,0.00
2013-12-13,45.4,37.7,31.8,26.0,18.9,13.3,58,46,35,30.41,30.30,1,0,7,0.00
2013-12-14,41.1,39.7,36.7,38.6,30.7,25.1,95,71,55,30.31,30.05,1,0,8,0.09
2013-12-15,42.8,37.1,30.7,42.5,31.4,27.1,99,80,68,30.11,29.78,15,4,19,0.01
2013-12-16,54.0,41.8,30.9,33.6,28.6,26.3,86,61,39,30.23,30.14,2,0,13,0.00
2013-12-17,58.4,47.3,40.9,37.3,31.0,21.1,65,54,38,30.18,29.98,2,1,15,0.00
2013-12-18,48.0,38.2,28.8,24.6,19.9,14.7,73,49,34,30.34,30.07,4,2,17,0.00
2013-12-19,55.5,47.7,40.9,27.8,20.2,11.9,49,34,26,30.35,30.25,1,0,8,0.00
2013-12-20,54.5,49.3,45.4,48.4,39.2,27.4,90,69,49,30.24,30.17,1,1,9,0.00
2013-12-21,59.2,55.3,52.6,58.9,53.9,49.7,99,95,88,30.17,30.01,1,0,9,0.37
2013-12-22,61.4,57.7,56.2,61.1,57.4,55.9,99,99,99,30.04,29.97,8,1,13,1.50
2013-12-28,49.6,43.4,38.1,36.7,26.0,20.2,93,52,31,30.45,30.18,1,0,5,0.25
2013-12-29,52.3,43.8,37.5,48.1,41.9,35.9,98,93,80,30.11,29.84,4,2,14,0.87
2013-12-30,47.0,42.3,37.1,41.0,37.5,33.9,91,83,78,30.13,29.99,5,2,18,0.00
2013-12-31,41.5,36.0,32.4,33.6,24.9,14.6,89,65,42,30.41,30.14,4,2,17,0.00
2014-1-1,43.3,37.9,34.6,32.0,27.0,21.4,82,65,51,30.41,30.18,1,0,7,0.00
2014-1-2,41.2,37.2,24.0,40.7,33.9,14.3,98,88,66,30.17,29.71,6,1,27,0.11